Аэропорт: Днепропетровск. Днепропетровск

ICAO: UKDD

METAR:
2019-09-21 16:00:00
UKDD 211600Z 30005MPS CAVOK 08/02 Q1019 R26/090070 TEMPO 32008G14MPS
METAR:
2019-09-21 11:01:00
TAF UKDD 211101Z 2112/2212 31005MPS 9999 SCT025 BKN040 TX17/2212Z TN05/2203Z TEMPO 2112/2118 32008G14MPS 3100 -SHRA BKN025CB BECMG 2118/2120 25007G13MPS TEMPO 2206/2212 28009G15MPS 3100 -SHRA BKN020CB